Time;durP1;ratioP1;P1;durP2;ratioP2;P2;SDS_P1;SDS_P2;PMS_P1;PMS_P2;Temp;Humidity;BMP_temperature;BMP_pressure;BME280_temperature;BME280_humidity;BME280_pressure;Samples;Min_cycle;Max_cycle;Signal;HPM_P1;HPM_P2
2023/03/21 00:00:44;;;;;;;8.82;2.08;;;17.60;1.00;;;;;;5094358;28;20094;-43
2023/03/21 00:03:11;;;;;;;11.23;2.95;;;17.60;1.00;;;;;;5093688;28;20036;-44
2023/03/21 00:05:44;;;;;;;7.18;1.80;;;17.60;1.00;;;;;;5094599;28;20067;-43
2023/03/21 00:08:11;;;;;;;8.95;2.35;;;17.60;1.00;;;;;;5094465;28;20447;-43
2023/03/21 00:10:38;;;;;;;7.53;2.05;;;17.50;1.00;;;;;;5094260;28;20040;-42
2023/03/21 00:13:11;;;;;;;9.40;2.28;;;17.50;1.00;;;;;;5093428;28;20040;-43
2023/03/21 00:15:49;;;;;;;8.07;3.15;;;17.50;1.00;;;;;;5094203;28;20119;-44
2023/03/21 00:18:30;;;;;;;7.85;2.65;;;17.50;1.00;;;;;;5094278;28;20415;-42
2023/03/21 00:21:03;;;;;;;8.38;2.33;;;17.50;1.00;;;;;;5094124;28;20050;-43
2023/03/21 00:23:50;;;;;;;8.07;2.28;;;17.40;1.00;;;;;;5093307;28;20118;-42
2023/03/21 00:26:17;;;;;;;8.40;2.50;;;17.40;1.00;;;;;;5094036;28;20146;-44
2023/03/21 00:28:44;;;;;;;7.07;2.53;;;17.40;1.00;;;;;;5093836;28;20104;-42
2023/03/21 00:31:11;;;;;;;6.00;1.77;;;17.40;1.00;;;;;;5092607;28;20052;-43
2023/03/21 00:33:38;;;;;;;9.07;2.05;;;17.40;1.00;;;;;;5075128;28;20100;-43
2023/03/21 00:36:07;;;;;;;6.10;2.08;;;17.40;1.00;;;;;;5092327;28;20048;-44
2023/03/21 00:38:35;;;;;;;8.07;2.30;;;17.30;1.00;;;;;;5093841;28;20046;-42
2023/03/21 00:41:07;;;;;;;10.88;2.42;;;17.40;1.00;;;;;;5093682;28;20078;-44
2023/03/21 00:43:54;;;;;;;4.35;2.83;;;17.30;1.00;;;;;;5092892;28;20040;-43
2023/03/21 00:46:21;;;;;;;6.25;1.83;;;17.30;1.00;;;;;;5092211;28;20537;-43
2023/03/21 00:48:51;;;;;;;5.07;1.67;;;17.30;1.00;;;;;;5092218;28;20051;-42
2023/03/21 00:51:25;;;;;;;6.30;2.50;;;17.30;1.00;;;;;;5093585;28;20118;-43
2023/03/21 00:53:56;;;;;;;6.38;1.90;;;17.30;1.00;;;;;;5092839;28;20048;-42
2023/03/21 00:56:26;;;;;;;5.38;2.92;;;17.30;1.00;;;;;;5092147;28;20054;-43
2023/03/21 00:58:53;;;;;;;8.32;2.85;;;17.30;1.00;;;;;;5091833;28;20473;-44
2023/03/21 01:01:20;;;;;;;9.10;2.25;;;17.30;1.00;;;;;;5091966;28;20040;-42
2023/03/21 01:03:49;;;;;;;4.15;1.80;;;17.30;1.00;;;;;;5091751;28;20105;-43
2023/03/21 01:06:19;;;;;;;4.65;2.40;;;17.20;1.00;;;;;;5091896;28;20403;-44
2023/03/21 01:08:47;;;;;;;5.28;1.83;;;17.20;1.00;;;;;;5093207;28;20152;-44
2023/03/21 01:11:23;;;;;;;6.13;2.05;;;17.20;1.00;;;;;;5091894;28;20059;-44
2023/03/21 01:13:51;;;;;;;8.73;2.03;;;17.20;1.00;;;;;;5091005;28;20052;-44
2023/03/21 01:16:26;;;;;;;7.57;2.17;;;17.20;1.00;;;;;;5093117;28;20036;-45
2023/03/21 01:18:53;;;;;;;8.45;2.35;;;17.20;1.00;;;;;;5091736;28;20529;-44
2023/03/21 01:21:20;;;;;;;6.05;1.90;;;17.20;1.00;;;;;;5092941;28;20075;-44
2023/03/21 01:23:46;;;;;;;5.80;2.15;;;17.20;1.00;;;;;;5092074;28;20068;-45
2023/03/21 01:26:14;;;;;;;6.15;2.33;;;17.10;1.00;;;;;;5091391;28;20040;-45
2023/03/21 01:28:44;;;;;;;7.25;2.88;;;17.10;1.00;;;;;;5091550;28;20588;-43
2023/03/21 01:31:13;;;;;;;7.30;2.50;;;17.10;1.00;;;;;;5091583;28;20043;-44
2023/03/21 01:33:41;;;;;;;8.88;2.58;;;17.10;1.00;;;;;;5091989;28;20490;-44
2023/03/21 01:36:14;;;;;;;5.45;1.80;;;17.10;1.00;;;;;;5092738;28;20507;-44
2023/03/21 01:38:42;;;;;;;5.15;2.10;;;17.00;1.00;;;;;;5092739;28;20040;-44
2023/03/21 01:41:26;;;;;;;4.90;1.83;;;17.00;1.00;;;;;;5091277;28;20093;-44
2023/03/21 01:44:16;;;;;;;6.70;2.03;;;17.00;1.00;;;;;;5090488;28;20040;-44
2023/03/21 01:46:51;;;;;;;7.53;2.17;;;17.00;1.00;;;;;;5091184;28;20050;-45
2023/03/21 01:49:48;;;;;;;9.30;2.58;;;16.90;1.00;;;;;;5092804;28;20089;-43
2023/03/21 01:52:30;;;;;;;8.68;2.30;;;16.90;1.00;;;;;;5092158;28;20065;-43
2023/03/21 01:55:12;;;;;;;6.30;2.03;;;16.90;1.00;;;;;;5091116;28;20075;-43
2023/03/21 01:58:12;;;;;;;9.43;2.47;;;16.90;1.00;;;;;;5066224;28;20436;-42
2023/03/21 02:01:03;;;;;;;6.72;2.90;;;16.90;1.00;;;;;;5090966;28;20044;-45
2023/03/21 02:03:48;;;;;;;9.70;2.40;;;16.90;1.00;;;;;;5089683;28;20048;-44
2023/03/21 02:06:30;;;;;;;10.00;2.17;;;16.90;1.00;;;;;;5091069;28;20101;-44
2023/03/21 02:09:10;;;;;;;6.93;2.30;;;16.80;1.00;;;;;;5088937;28;20051;-45
2023/03/21 02:11:37;;;;;;;9.02;2.35;;;16.80;1.00;;;;;;5089319;28;20063;-44
2023/03/21 02:14:05;;;;;;;5.07;2.08;;;16.80;1.00;;;;;;5091145;28;20119;-41
2023/03/21 02:17:13;;;;;;;4.30;2.40;;;16.80;1.00;;;;;;5090669;28;20047;-43
2023/03/21 02:20:20;;;;;;;7.72;1.92;;;16.80;1.00;;;;;;5090655;28;20072;-43
2023/03/21 02:23:03;;;;;;;12.88;3.50;;;16.80;1.00;;;;;;5089903;28;20050;-43
2023/03/21 02:25:55;;;;;;;4.25;2.00;;;16.80;1.00;;;;;;5090640;28;20036;-44
2023/03/21 02:28:31;;;;;;;5.57;2.33;;;16.80;1.00;;;;;;5092115;28;20036;-44
2023/03/21 02:31:04;;;;;;;5.43;2.22;;;16.80;1.00;;;;;;5090609;28;20040;-45
2023/03/21 02:33:56;;;;;;;8.13;3.00;;;16.80;1.00;;;;;;5090002;28;20048;-44
2023/03/21 02:36:26;;;;;;;6.57;2.22;;;16.70;1.00;;;;;;5090604;28;20101;-44
2023/03/21 02:39:10;;;;;;;6.32;2.22;;;16.70;1.00;;;;;;5090311;28;20076;-45
2023/03/21 02:41:37;;;;;;;;;;;16.70;1.00;;;;;;5090977;28;20055;-44
2023/03/21 02:44:16;;;;;;;7.55;2.40;;;16.70;1.00;;;;;;5089893;28;19969;-43
2023/03/21 02:46:45;;;;;;;6.50;2.33;;;16.70;1.00;;;;;;5091828;28;20105;-44
2023/03/21 02:49:28;;;;;;;6.22;2.17;;;16.70;1.00;;;;;;5090520;28;20522;-44
2023/03/21 02:51:58;;;;;;;5.93;1.88;;;16.70;1.00;;;;;;5091905;28;20044;-42
2023/03/21 02:54:42;;;;;;;8.23;3.05;;;16.70;1.00;;;;;;5090164;28;20071;-44
2023/03/21 02:57:19;;;;;;;7.10;3.13;;;16.70;1.00;;;;;;5090502;28;20445;-43
2023/03/21 02:59:51;;;;;;;6.60;1.85;;;16.70;1.00;;;;;;5090366;28;20131;-43
2023/03/21 03:02:29;;;;;;;5.07;2.55;;;16.70;1.00;;;;;;5090033;28;20044;-44
2023/03/21 03:04:56;;;;;;;6.30;2.00;;;16.70;1.00;;;;;;5089934;28;20036;-43
2023/03/21 03:07:39;;;;;;;8.40;2.45;;;16.60;1.00;;;;;;5090321;28;20036;-44
2023/03/21 03:10:33;;;;;;;5.70;1.67;;;16.60;1.00;;;;;;5090302;28;20048;-43
2023/03/21 03:13:26;;;;;;;5.78;2.10;;;16.60;1.00;;;;;;5089658;28;20463;-44
2023/03/21 03:16:19;;;;;;;7.60;2.28;;;16.60;1.00;;;;;;5090031;28;20403;-44
2023/03/21 03:18:53;;;;;;;6.77;1.87;;;16.60;1.00;;;;;;5090085;28;20051;-44
2023/03/21 03:21:20;;;;;;;6.45;1.88;;;16.60;1.00;;;;;;5090373;28;20369;-44
2023/03/21 03:23:54;;;;;;;5.55;2.00;;;16.50;1.00;;;;;;5090722;28;20115;-42
2023/03/21 03:26:38;;;;;;;7.63;2.20;;;16.60;1.00;;;;;;5090587;28;20073;-42
2023/03/21 03:29:11;;;;;;;;;;;16.50;1.00;;;;;;5094369;28;20044;-42
2023/03/21 03:31:44;;;;;;;7.28;2.00;;;16.50;1.00;;;;;;5093883;28;19920;-43
2023/03/21 03:34:15;;;;;;;5.38;2.72;;;16.50;1.00;;;;;;5092991;28;20101;-43
2023/03/21 03:36:50;;;;;;;6.78;2.10;;;16.50;1.00;;;;;;5093719;28;20044;-43
2023/03/21 03:39:18;;;;;;;6.18;2.13;;;16.40;1.00;;;;;;5093596;28;20135;-44
2023/03/21 03:42:02;;;;;;;6.85;2.28;;;16.40;1.00;;;;;;5095061;28;20450;-43
2023/03/21 03:44:47;;;;;;;6.03;2.17;;;16.50;1.00;;;;;;5072793;22;20083;-37
2023/03/21 03:47:36;;;;;;;3.47;1.75;;;16.50;1.00;;;;;;5069733;28;20084;-37
2023/03/21 03:50:38;;;;;;;4.28;1.77;;;16.40;1.00;;;;;;5049219;28;20407;-37
2023/03/21 03:53:27;;;;;;;5.10;1.90;;;16.40;1.00;;;;;;5035182;28;20099;-37
2023/03/21 03:55:57;;;;;;;7.13;1.88;;;16.40;1.00;;;;;;5053207;28;20496;-37
2023/03/21 03:58:25;;;;;;;3.45;1.80;;;16.40;1.00;;;;;;5070867;28;20036;-37
2023/03/21 04:01:08;;;;;;;4.93;1.98;;;16.40;1.00;;;;;;5073127;28;20044;-37
2023/03/21 04:03:38;;;;;;;7.97;2.10;;;16.40;1.00;;;;;;5072083;28;20047;-37
2023/03/21 04:06:17;;;;;;;4.43;1.48;;;16.40;1.00;;;;;;5073054;28;20044;-37
2023/03/21 04:08:45;;;;;;;5.00;1.80;;;16.30;1.00;;;;;;5072764;28;20068;-37
2023/03/21 04:11:15;;;;;;;5.03;2.40;;;16.40;1.00;;;;;;5072723;28;20420;-37
2023/03/21 04:13:47;;;;;;;4.40;2.20;;;16.40;1.00;;;;;;5063546;28;20147;-37
2023/03/21 04:16:20;;;;;;;7.97;2.38;;;16.30;1.00;;;;;;5072636;28;20052;-37
2023/03/21 04:18:47;;;;;;;7.78;2.10;;;16.30;1.00;;;;;;5072769;28;20087;-37
2023/03/21 04:21:17;;;;;;;7.38;2.10;;;16.30;1.00;;;;;;5072673;28;20059;-37
2023/03/21 04:23:44;;;;;;;10.55;2.08;;;16.30;1.00;;;;;;5071623;28;20044;-37
2023/03/21 04:26:11;;;;;;;7.75;2.17;;;16.30;1.00;;;;;;5072576;28;20063;-37
2023/03/21 04:28:43;;;;;;;4.75;1.92;;;16.30;1.00;;;;;;5072474;28;20098;-37
2023/03/21 04:31:32;;;;;;;6.72;2.28;;;16.30;1.00;;;;;;5073626;28;20049;-37
2023/03/21 04:34:11;;;;;;;5.22;2.15;;;16.30;1.00;;;;;;5071663;28;20049;-37
2023/03/21 04:36:45;;;;;;;5.90;2.03;;;16.30;1.00;;;;;;5072230;28;20530;-37
2023/03/21 04:39:13;;;;;;;9.48;2.38;;;16.30;1.00;;;;;;5071928;28;20044;-37
2023/03/21 04:41:44;;;;;;;4.30;2.20;;;16.30;1.00;;;;;;5073356;28;20067;-37
2023/03/21 04:44:12;;;;;;;9.73;2.20;;;16.30;1.00;;;;;;5071167;28;20515;-37
2023/03/21 04:46:40;;;;;;;4.82;2.17;;;16.20;1.00;;;;;;5072137;28;20040;-37
2023/03/21 04:49:08;;;;;;;4.80;2.17;;;16.20;1.00;;;;;;5072075;28;20041;-37
2023/03/21 04:51:35;;;;;;;5.57;2.05;;;16.20;1.00;;;;;;5073390;28;20450;-37
2023/03/21 04:54:07;;;;;;;6.07;1.70;;;16.20;1.00;;;;;;5071213;28;20076;-37
2023/03/21 04:56:34;;;;;;;3.60;2.13;;;16.20;1.00;;;;;;5073227;28;20090;-37
2023/03/21 04:59:07;;;;;;;3.28;1.75;;;16.20;1.00;;;;;;5072145;28;20140;-37
2023/03/21 05:01:34;;;;;;;9.47;2.93;;;16.20;1.00;;;;;;5071970;28;20568;-37
2023/03/21 05:04:03;;;;;;;4.15;1.63;;;16.20;1.00;;;;;;5072243;28;20029;-37
2023/03/21 05:06:33;;;;;;;5.50;2.40;;;16.20;1.00;;;;;;5071750;28;20500;-37
2023/03/21 05:09:04;;;;;;;5.65;2.53;;;16.20;1.00;;;;;;5069335;28;20087;-37
2023/03/21 05:11:36;;;;;;;4.40;2.10;;;16.20;1.00;;;;;;5064337;28;20462;-37
2023/03/21 05:14:05;;;;;;;4.90;2.00;;;16.20;1.00;;;;;;5067124;28;20040;-37
2023/03/21 05:16:33;;;;;;;4.22;1.83;;;16.20;1.00;;;;;;5071676;28;20044;-37
2023/03/21 05:19:03;;;;;;;5.43;2.50;;;16.20;1.00;;;;;;5071435;28;20048;-37
2023/03/21 05:21:40;;;;;;;9.57;3.10;;;16.20;1.00;;;;;;5071466;28;20045;-37
2023/03/21 05:24:20;;;;;;;6.88;2.72;;;16.10;1.00;;;;;;5070466;28;20041;-37
2023/03/21 05:26:49;;;;;;;7.75;2.38;;;16.10;1.00;;;;;;5071447;28;20075;-37
2023/03/21 05:29:18;;;;;;;16.27;2.50;;;16.10;1.00;;;;;;5071188;28;20067;-37
2023/03/21 05:31:52;;;;;;;5.20;2.30;;;16.10;1.00;;;;;;5071358;28;20044;-37
2023/03/21 05:34:19;;;;;;;7.13;2.20;;;16.10;1.00;;;;;;5069632;28;20139;-37
2023/03/21 05:36:46;;;;;;;7.13;2.88;;;16.10;1.00;;;;;;5070035;28;20496;-37
2023/03/21 05:39:13;;;;;;;6.38;3.13;;;16.10;1.00;;;;;;5071127;28;20071;-37
2023/03/21 05:41:45;;;;;;;4.65;2.35;;;16.10;1.00;;;;;;5071067;28;20044;-37
2023/03/21 05:44:13;;;;;;;5.88;2.63;;;16.10;1.00;;;;;;5070137;28;20040;-37
2023/03/21 05:46:39;;;;;;;3.65;2.03;;;16.10;1.00;;;;;;5071086;28;20411;-37
2023/03/21 05:49:06;;;;;;;6.85;2.72;;;16.10;1.00;;;;;;5070770;28;20066;-37
2023/03/21 05:51:34;;;;;;;10.30;3.42;;;16.00;1.00;;;;;;5070966;28;20053;-37
2023/03/21 05:54:01;;;;;;;6.03;2.47;;;16.10;1.00;;;;;;5070116;28;20040;-37
2023/03/21 05:56:28;;;;;;;5.68;2.35;;;16.10;1.00;;;;;;5070712;28;20151;-37
2023/03/21 05:59:00;;;;;;;4.90;2.72;;;16.00;1.00;;;;;;5070854;28;20464;-37
2023/03/21 06:01:27;;;;;;;8.05;2.88;;;16.00;1.00;;;;;;5053345;28;20401;-37
2023/03/21 06:04:05;;;;;;;8.18;2.85;;;16.00;1.00;;;;;;5058488;28;20064;-37
2023/03/21 06:06:32;;;;;;;5.30;2.58;;;16.00;1.00;;;;;;5056397;28;20045;-37
2023/03/21 06:09:00;;;;;;;8.82;3.50;;;16.00;1.00;;;;;;5049248;28;20049;-37
2023/03/21 06:11:31;;;;;;;7.00;3.17;;;16.00;1.00;;;;;;5048239;28;20049;-37
2023/03/21 06:14:34;;;;;;;7.68;3.17;;;16.00;1.00;;;;;;4969095;28;20066;-37
2023/03/21 06:17:24;;;;;;;11.82;3.67;;;16.00;1.00;;;;;;5043845;28;20058;-37
2023/03/21 06:19:55;;;;;;;8.00;3.17;;;16.00;1.00;;;;;;5048132;28;20048;-37
2023/03/21 06:22:27;;;;;;;6.97;3.10;;;16.00;1.00;;;;;;5052596;28;20051;-37
2023/03/21 06:24:54;;;;;;;7.75;3.15;;;16.00;1.00;;;;;;5069856;28;20511;-37
2023/03/21 06:27:21;;;;;;;5.32;3.10;;;16.00;1.00;;;;;;5070431;28;20044;-37
2023/03/21 06:29:52;;;;;;;9.15;3.72;;;15.90;1.00;;;;;;5070707;28;20757;-37
2023/03/21 06:32:20;;;;;;;5.60;3.00;;;16.00;1.00;;;;;;5070061;28;20079;-37
2023/03/21 06:34:50;;;;;;;9.10;3.40;;;15.90;1.00;;;;;;5070188;28;20049;-37
2023/03/21 06:37:18;;;;;;;6.32;2.90;;;15.90;1.00;;;;;;5070398;28;20466;-37
2023/03/21 06:39:45;;;;;;;15.20;3.72;;;16.00;1.00;;;;;;5070500;28;20430;-37
2023/03/21 06:42:13;;;;;;;7.32;3.60;;;15.90;1.00;;;;;;5071323;28;20032;-37
2023/03/21 06:44:40;;;;;;;8.07;3.53;;;15.90;1.00;;;;;;5069829;28;20064;-37
2023/03/21 06:47:12;;;;;;;5.93;2.88;;;15.90;1.00;;;;;;5070362;28;20047;-37
2023/03/21 06:49:42;;;;;;;7.63;3.40;;;15.90;1.00;;;;;;5070380;28;20072;-37
2023/03/21 06:52:11;;;;;;;5.63;3.13;;;15.90;1.00;;;;;;5071368;28;20055;-37
2023/03/21 06:54:38;;;;;;;5.05;2.55;;;15.90;1.00;;;;;;5069731;28;20055;-37
2023/03/21 06:57:14;;;;;;;7.63;2.95;;;15.90;1.00;;;;;;5070265;28;20465;-37
2023/03/21 06:59:41;;;;;;;7.55;2.47;;;15.90;1.00;;;;;;5069892;28;20127;-37
2023/03/21 07:02:12;;;;;;;10.73;3.40;;;15.90;1.00;;;;;;5072906;28;20078;-37
2023/03/21 07:04:45;;;;;;;6.13;3.40;;;15.90;1.00;;;;;;5073576;28;20047;-37
2023/03/21 07:07:17;;;;;;;8.70;3.63;;;15.90;1.00;;;;;;5073929;28;20064;-37
2023/03/21 07:09:44;;;;;;;7.05;3.45;;;15.90;1.00;;;;;;5073927;28;20068;-37
2023/03/21 07:12:11;;;;;;;5.53;3.28;;;15.80;1.00;;;;;;5057303;28;20506;-37
2023/03/21 07:15:00;;;;;;;8.98;3.08;;;15.90;1.00;;;;;;5073252;28;20143;-37
2023/03/21 07:17:27;;;;;;;6.15;3.42;;;15.80;1.00;;;;;;5073699;28;20052;-37
2023/03/21 07:19:56;;;;;;;6.18;2.80;;;15.80;1.00;;;;;;5073677;28;20051;-37
2023/03/21 07:22:23;;;;;;;7.07;2.90;;;15.80;1.00;;;;;;5073322;28;20435;-37
2023/03/21 07:24:50;;;;;;;6.43;3.10;;;15.80;1.00;;;;;;5074320;28;20419;-37
2023/03/21 07:27:37;;;;;;;7.30;2.83;;;15.80;1.00;;;;;;5073671;28;20052;-37
2023/03/21 07:30:08;;;;;;;5.10;2.80;;;15.80;1.00;;;;;;5073506;28;20518;-37
2023/03/21 07:32:36;;;;;;;3.55;2.63;;;15.80;1.00;;;;;;5073127;28;20472;-37
2023/03/21 07:35:06;;;;;;;6.95;2.47;;;15.80;1.00;;;;;;5074560;28;20037;-37
2023/03/21 07:37:32;;;;;;;6.32;3.15;;;15.80;1.00;;;;;;5073311;28;20415;-37
2023/03/21 07:40:00;;;;;;;5.85;2.92;;;15.80;1.00;;;;;;5074541;28;20051;-37
2023/03/21 07:42:29;;;;;;;5.53;2.78;;;15.80;1.00;;;;;;5072934;28;20500;-37
2023/03/21 07:44:59;;;;;;;5.85;2.75;;;15.80;1.00;;;;;;5072672;28;20036;-37
2023/03/21 07:47:31;;;;;;;7.55;3.13;;;15.80;1.00;;;;;;5074580;28;20395;-37
2023/03/21 07:49:58;;;;;;;6.28;2.75;;;15.80;1.00;;;;;;5074481;28;20116;-37
2023/03/21 07:52:25;;;;;;;5.45;2.75;;;15.80;1.00;;;;;;5072773;28;20102;-37
2023/03/21 07:54:52;;;;;;;6.35;2.70;;;15.70;1.00;;;;;;5073896;28;20412;-37
2023/03/21 07:57:19;;;;;;;5.93;2.72;;;15.70;1.00;;;;;;5074264;28;20269;-37
2023/03/21 07:59:45;;;;;;;5.47;3.03;;;15.70;1.00;;;;;;5074208;28;20492;-37
2023/03/21 08:02:14;;;;;;;6.38;2.80;;;15.70;1.00;;;;;;5074004;28;20053;-37
2023/03/21 08:04:40;;;;;;;4.30;2.40;;;15.70;1.00;;;;;;5073708;28;20445;-37
2023/03/21 08:07:07;;;;;;;6.68;2.67;;;15.70;1.00;;;;;;5074103;28;20044;-37
2023/03/21 08:09:35;;;;;;;5.57;2.70;;;15.70;1.00;;;;;;5074149;28;20094;-37
2023/03/21 08:12:04;;;;;;;6.88;2.58;;;15.70;1.00;;;;;;5073620;28;20040;-37
2023/03/21 08:14:32;;;;;;;6.22;2.22;;;15.70;1.00;;;;;;5073515;28;20488;-37
2023/03/21 08:16:58;;;;;;;6.05;2.90;;;15.70;1.00;;;;;;5073911;28;20488;-37
2023/03/21 08:19:25;;;;;;;8.55;2.67;;;15.70;1.00;;;;;;5073900;28;20052;-37
2023/03/21 08:21:52;;;;;;;5.15;2.50;;;15.70;1.00;;;;;;5072674;28;20048;-37
2023/03/21 08:24:19;;;;;;;6.05;3.22;;;15.70;1.00;;;;;;5072622;28;20045;-37
2023/03/21 08:26:46;;;;;;;4.28;2.35;;;15.70;1.00;;;;;;5073629;28;20075;-37
2023/03/21 08:29:12;;;;;;;5.80;3.05;;;15.70;1.00;;;;;;5073759;28;20299;-37
2023/03/21 08:31:40;;;;;;;7.53;3.17;;;15.70;1.00;;;;;;5073858;28;20045;-37
2023/03/21 08:34:07;;;;;;;5.22;2.65;;;15.70;1.00;;;;;;5072698;28;20414;-37
2023/03/21 08:36:36;;;;;;;4.20;2.08;;;15.70;1.00;;;;;;5073622;28;20083;-37
2023/03/21 08:39:06;;;;;;;8.98;2.70;;;15.70;1.00;;;;;;5073475;28;20045;-37
2023/03/21 08:41:35;;;;;;;6.68;2.72;;;15.70;1.00;;;;;;5072377;28;20048;-37
2023/03/21 08:44:03;;;;;;;4.43;2.42;;;15.70;1.00;;;;;;5072394;28;20045;-37
2023/03/21 08:46:30;;;;;;;5.10;2.55;;;15.70;1.00;;;;;;5073440;28;20042;-37
2023/03/21 08:48:57;;;;;;;5.63;2.63;;;15.70;1.00;;;;;;5073293;28;20055;-37
2023/03/21 08:51:23;;;;;;;4.93;2.63;;;15.70;1.00;;;;;;5073153;28;20068;-37
2023/03/21 08:53:50;;;;;;;4.95;2.25;;;15.70;1.00;;;;;;5072332;28;20075;-37
2023/03/21 08:56:17;;;;;;;5.25;2.40;;;15.70;1.00;;;;;;5073281;28;20106;-37
2023/03/21 08:58:44;;;;;;;5.82;3.38;;;15.70;1.00;;;;;;5073194;28;20516;-37
2023/03/21 09:01:14;;;;;;;4.68;3.10;;;15.70;1.00;;;;;;5073466;28;20430;-37
2023/03/21 09:03:42;;;;;;;5.28;2.38;;;15.70;1.00;;;;;;5072147;28;20078;-37
2023/03/21 09:06:13;;;;;;;5.13;2.63;;;15.70;1.00;;;;;;5073090;28;20060;-37
2023/03/21 09:08:40;;;;;;;9.10;2.35;;;15.70;1.00;;;;;;5073211;28;20045;-37
2023/03/21 09:11:09;;;;;;;3.63;2.15;;;15.70;1.00;;;;;;5072913;28;20512;-37
2023/03/21 09:13:36;;;;;;;6.40;2.42;;;15.70;1.00;;;;;;5072003;28;20048;-37
2023/03/21 09:16:03;;;;;;;6.35;1.98;;;15.70;1.00;;;;;;5072785;28;20530;-37
2023/03/21 09:18:47;;;;;;;6.93;2.58;;;15.70;1.00;;;;;;5072634;28;20048;-37
2023/03/21 09:21:17;;;;;;;4.90;2.58;;;15.70;1.00;;;;;;5072730;28;20044;-37
2023/03/21 09:23:44;;;;;;;7.07;2.65;;;15.70;1.00;;;;;;5071397;28;20098;-37
2023/03/21 09:26:12;;;;;;;4.93;2.45;;;15.70;1.00;;;;;;5072500;28;20050;-37
2023/03/21 09:28:39;;;;;;;5.78;2.25;;;15.70;1.00;;;;;;5072505;28;20040;-37
2023/03/21 09:31:10;;;;;;;6.05;2.28;;;15.70;1.00;;;;;;5072415;28;20043;-37
2023/03/21 09:33:41;;;;;;;3.22;1.83;;;15.70;1.00;;;;;;5071733;28;20071;-37
2023/03/21 09:36:17;;;;;;;4.00;1.80;;;15.60;1.00;;;;;;5072284;28;20074;-37
2023/03/21 09:38:46;;;;;;;3.92;2.50;;;15.60;1.00;;;;;;5072468;28;20488;-37
2023/03/21 09:41:23;;;;;;;5.78;1.90;;;15.60;1.00;;;;;;5072473;28;20263;-37
2023/03/21 09:44:01;;;;;;;5.43;2.25;;;15.60;1.00;;;;;;5080766;22;20526;-36
2023/03/21 09:46:47;;;;;;;7.75;2.75;;;15.60;1.00;;;;;;5063852;28;20055;-36
2023/03/21 09:49:57;;;;;;;3.47;1.50;;;15.70;1.00;;;;;;5072270;28;20048;-37
2023/03/21 09:52:46;;;;;;;6.15;2.05;;;15.70;1.00;;;;;;5009556;28;20092;-36
2023/03/21 09:55:21;;;;;;;5.60;1.90;;;15.60;1.00;;;;;;5010274;28;20042;-36
2023/03/21 09:57:58;;;;;;;4.60;2.13;;;15.70;1.00;;;;;;5040456;28;20053;-36
2023/03/21 10:00:31;;;;;;;3.30;1.85;;;15.70;1.00;;;;;;5034204;28;20049;-36
2023/03/21 10:03:05;;;;;;;5.38;2.22;;;15.70;1.00;;;;;;5051279;28;20132;-36
2023/03/21 10:05:34;;;;;;;8.27;2.75;;;15.70;1.00;;;;;;5052047;28;20045;-36
2023/03/21 10:08:18;;;;;;;3.38;2.08;;;15.70;1.00;;;;;;5052033;28;20041;-36
2023/03/21 10:10:54;;;;;;;4.43;1.80;;;15.70;1.00;;;;;;5052013;28;20037;-36
2023/03/21 10:13:31;;;;;;;3.08;1.60;;;15.70;1.00;;;;;;5051287;28;20045;-35
2023/03/21 10:16:02;;;;;;;3.15;1.88;;;15.70;1.00;;;;;;5051848;28;20112;-36
2023/03/21 10:18:30;;;;;;;2.13;1.55;;;15.70;1.00;;;;;;5051904;28;20045;-36
2023/03/21 10:20:57;;;;;;;5.13;1.67;;;15.70;1.00;;;;;;5051522;28;20040;-46
2023/03/21 10:23:28;;;;;;;2.78;1.58;;;15.70;1.00;;;;;;5050860;28;20041;-35
2023/03/21 10:26:01;;;;;;;2.58;1.52;;;15.70;1.00;;;;;;5051805;28;20411;-36
2023/03/21 10:28:34;;;;;;;3.08;1.90;;;15.70;1.00;;;;;;5051642;28;20037;-36
2023/03/21 10:31:24;;;;;;;4.28;2.13;;;15.70;1.00;;;;;;5051688;28;20094;-35
2023/03/21 10:33:53;;;;;;;5.15;2.63;;;15.70;1.00;;;;;;5050752;28;20045;-35
2023/03/21 10:36:21;;;;;;;5.40;2.15;;;15.70;1.00;;;;;;5053854;28;20544;-35
2023/03/21 10:38:55;;;;;;;4.30;2.22;;;15.60;1.00;;;;;;5055816;28;20407;-35
2023/03/21 10:41:22;;;;;;;6.10;2.30;;;15.70;1.00;;;;;;5056312;28;20562;-35
2023/03/21 10:44:09;;;;;;;3.47;1.70;;;15.70;1.00;;;;;;5054522;28;20045;-35
2023/03/21 10:46:37;;;;;;;4.45;2.10;;;15.70;1.00;;;;;;5055747;28;20118;-35
2023/03/21 10:49:06;;;;;;;6.75;2.25;;;15.70;1.00;;;;;;5055608;28;20059;-36
2023/03/21 10:51:36;;;;;;;6.15;2.47;;;15.70;1.00;;;;;;5055603;28;20068;-36
2023/03/21 10:54:15;;;;;;;5.57;2.08;;;15.70;1.00;;;;;;5054500;28;20412;-36
2023/03/21 10:57:10;;;;;;;5.25;1.70;;;15.70;1.00;;;;;;5055564;28;20500;-36
2023/03/21 10:59:43;;;;;;;5.38;2.10;;;15.70;1.00;;;;;;5054242;28;20057;-36
2023/03/21 11:02:18;;;;;;;3.00;2.07;;;15.70;1.00;;;;;;5055130;28;20049;-36
2023/03/21 11:04:45;;;;;;;5.18;2.92;;;15.70;1.00;;;;;;5054759;28;20306;-36
2023/03/21 11:07:14;;;;;;;6.05;2.65;;;15.70;1.00;;;;;;5055318;28;20045;-36
2023/03/21 11:09:45;;;;;;;4.50;2.50;;;15.70;1.00;;;;;;5055250;28;20054;-36
2023/03/21 11:12:17;;;;;;;6.00;2.03;;;15.70;1.00;;;;;;5055313;28;20048;-36
2023/03/21 11:14:47;;;;;;;5.40;2.45;;;15.70;1.00;;;;;;5054636;28;20045;-37
2023/03/21 11:17:17;;;;;;;5.05;1.83;;;15.70;1.00;;;;;;5054994;28;20049;-36
2023/03/21 11:19:58;;;;;;;4.75;2.42;;;15.70;1.00;;;;;;5055018;28;20496;-36
2023/03/21 11:22:35;;;;;;;7.50;2.22;;;15.70;1.00;;;;;;5054809;28;20079;-36
2023/03/21 11:25:06;;;;;;;4.85;2.50;;;15.70;1.00;;;;;;5054976;28;20051;-37
2023/03/21 11:27:33;;;;;;;4.38;1.88;;;15.70;1.00;;;;;;5054842;28;20052;-36
2023/03/21 11:30:04;;;;;;;3.67;1.98;;;15.70;1.00;;;;;;5054728;28;20560;-37
2023/03/21 11:32:36;;;;;;;4.93;2.20;;;15.80;1.00;;;;;;5054389;28;20048;-37
2023/03/21 11:35:12;;;;;;;5.43;2.88;;;15.80;1.00;;;;;;5054782;28;20156;-36
2023/03/21 11:37:45;;;;;;;10.48;2.88;;;15.80;1.00;;;;;;5054768;28;20041;-36
2023/03/21 11:40:22;;;;;;;4.47;2.45;;;15.80;1.00;;;;;;5054691;28;20049;-36
2023/03/21 11:42:55;;;;;;;7.38;2.65;;;15.80;1.00;;;;;;5053846;28;20072;-36
2023/03/21 11:45:23;;;;;;;11.73;3.27;;;15.80;1.00;;;;;;5054146;28;20489;-36
2023/03/21 11:47:53;;;;;;;3.85;2.50;;;15.80;1.00;;;;;;5053688;28;20277;-36
2023/03/21 11:50:33;;;;;;;6.85;2.63;;;15.80;1.00;;;;;;5054379;28;20124;-37
2023/03/21 11:53:25;;;;;;;6.85;2.53;;;15.80;1.00;;;;;;5053600;28;20120;-36
2023/03/21 11:56:24;;;;;;;4.47;2.63;;;15.80;1.00;;;;;;5054493;28;20060;-36
2023/03/21 11:59:16;;;;;;;6.97;2.63;;;15.80;1.00;;;;;;5054101;28;20072;-36
2023/03/21 12:02:00;;;;;;;8.05;2.55;;;15.80;1.00;;;;;;5054315;28;20136;-36
2023/03/21 12:04:41;;;;;;;5.97;2.45;;;15.80;1.00;;;;;;5053445;28;20071;-36
2023/03/21 12:07:40;;;;;;;6.57;2.45;;;15.80;1.00;;;;;;5054174;28;20042;-36
2023/03/21 12:10:12;;;;;;;4.60;2.25;;;15.80;1.00;;;;;;5054123;28;20194;-36
2023/03/21 12:13:17;;;;;;;5.90;2.95;;;15.80;1.00;;;;;;5053307;28;20041;-36
2023/03/21 12:15:52;;;;;;;4.30;2.50;;;15.80;1.00;;;;;;5053977;28;20053;-36
2023/03/21 12:18:42;;;;;;;7.68;2.38;;;15.80;1.00;;;;;;5054073;28;20557;-35
2023/03/21 12:21:16;;;;;;;7.28;2.75;;;15.80;1.00;;;;;;5054020;28;20049;-36
2023/03/21 12:23:55;;;;;;;8.30;2.47;;;15.80;1.00;;;;;;5052876;28;20056;-36
2023/03/21 12:26:40;;;;;;;7.90;2.88;;;15.90;1.00;;;;;;5054152;28;20385;-37
2023/03/21 12:29:35;;;;;;;5.93;2.47;;;15.90;1.00;;;;;;5053612;28;20514;-37
2023/03/21 12:32:31;;;;;;;4.93;2.65;;;15.90;1.00;;;;;;5053597;28;20044;-36
2023/03/21 12:35:22;;;;;;;4.78;2.63;;;15.90;1.00;;;;;;5053252;28;20488;-36
2023/03/21 12:38:04;;;;;;;7.05;3.15;;;15.90;1.00;;;;;;5053565;28;20489;-36
2023/03/21 12:40:51;;;;;;;4.95;2.13;;;15.90;1.00;;;;;;5053440;28;20072;-36
2023/03/21 12:43:20;;;;;;;6.72;2.60;;;15.90;1.00;;;;;;5052312;28;20037;-37
2023/03/21 12:45:51;;;;;;;3.80;2.20;;;15.90;1.00;;;;;;5053456;28;20497;-36
2023/03/21 12:48:26;;;;;;;4.75;2.10;;;15.90;1.00;;;;;;5053350;28;20052;-36
2023/03/21 12:50:56;;;;;;;4.95;2.00;;;15.90;1.00;;;;;;5053861;28;20041;-36
2023/03/21 12:53:46;;;;;;;5.97;2.35;;;15.90;1.00;;;;;;5052550;28;20045;-36
2023/03/21 12:56:19;;;;;;;6.88;2.90;;;15.90;1.00;;;;;;5053242;28;20041;-35
2023/03/21 12:58:57;;;;;;;6.10;2.25;;;15.90;1.00;;;;;;5052504;28;20381;-36
2023/03/21 13:01:25;;;;;;;4.93;2.50;;;15.90;1.00;;;;;;5052839;28;20505;-36
2023/03/21 13:04:04;;;;;;;6.05;3.25;;;15.90;1.00;;;;;;5052245;28;20063;-36
2023/03/21 13:06:32;;;;;;;6.07;2.28;;;15.90;1.00;;;;;;5053110;28;20439;-36
2023/03/21 13:09:17;;;;;;;8.68;3.10;;;15.90;1.00;;;;;;5035606;28;20037;-36
2023/03/21 13:11:59;;;;;;;7.28;3.33;;;15.90;1.00;;;;;;5052785;28;20053;-36
2023/03/21 13:14:32;;;;;;;9.70;2.92;;;15.90;1.00;;;;;;5052107;28;20059;-36
2023/03/21 13:17:05;;;;;;;;;;;15.90;1.00;;;;;;5053246;28;20102;-36
2023/03/21 13:19:38;;;;;;;5.70;2.28;;;15.90;1.00;;;;;;5052895;28;19921;-36
2023/03/21 13:22:13;;;;;;;4.57;2.58;;;15.90;1.00;;;;;;5052565;28;20116;-36
2023/03/21 13:24:46;;;;;;;7.18;2.30;;;15.90;1.00;;;;;;5052062;28;20051;-36
2023/03/21 13:27:23;;;;;;;7.30;2.08;;;16.00;1.00;;;;;;5052627;28;20120;-37
2023/03/21 13:29:53;;;;;;;6.47;2.40;;;15.90;1.00;;;;;;5052517;28;20048;-37
2023/03/21 13:32:38;;;;;;;8.73;3.17;;;15.90;1.00;;;;;;5052168;28;20045;-37